Terminal Aerodrome Forecast
Issued by NWS

Home | Current Version | Previous Version | Text Only | Print | Product List | Glossary On
Versions: 1 2 3 4 5 6 7 8 9 10 11 12 13
576
FTUS42 TJSJ 300548
TAFNCM
TAF
TNCM 300548Z 3006/0106 13016KT P6SM -RA FEW018 SCT020 BKN100
      TEMPO 3007/3011 VRB12G20KT 5SM SHRA BKN018 BKN030
     FM301330 13012KT P6SM FEW018 FEW020 SCT050=

USA.gov is the U.S. government's official web portal to all federal, state and local government web resources and services.